Time;durP1;ratioP1;P1;durP2;ratioP2;P2;SDS_P1;SDS_P2;PMS_P1;PMS_P2;Temp;Humidity;BMP_temperature;BMP_pressure;BME280_temperature;BME280_humidity;BME280_pressure;Samples;Min_cycle;Max_cycle;Signal;HPM_P1;HPM_P2
2021/06/07 00:00:10;;;;;;;2.60;2.40;;;;;;;21.92;57.23;100216.16;2085032;28;20021;-49
2021/06/07 00:01:14;;;;;;;1.90;1.75;;;;;;;21.94;57.00;100213.25;2079128;28;20052;-51
2021/06/07 00:02:14;;;;;;;2.42;2.22;;;;;;;21.94;57.19;100210.53;2090447;28;20465;-48
2021/06/07 00:03:15;;;;;;;3.60;2.60;;;;;;;21.93;57.22;100206.91;2087978;28;20025;-51
2021/06/07 00:04:16;;;;;;;2.67;2.33;;;;;;;21.92;57.05;100202.44;2089400;28;20033;-49
2021/06/07 00:05:16;;;;;;;3.30;2.30;;;;;;;21.93;57.30;100198.69;2082858;28;20166;-49
2021/06/07 00:06:18;;;;;;;2.40;2.20;;;;;;;21.92;57.06;100201.59;2083740;28;20021;-51
2021/06/07 00:07:18;;;;;;;1.98;1.80;;;;;;;21.93;57.25;100203.31;2083971;28;20268;-52
2021/06/07 00:08:19;;;;;;;3.20;2.43;;;;;;;21.94;56.96;100199.53;2081309;28;20029;-49
2021/06/07 00:09:19;;;;;;;3.17;2.40;;;;;;;21.94;57.13;100197.66;2088387;28;20029;-51
2021/06/07 00:10:20;;;;;;;2.73;2.27;;;;;;;21.94;57.28;100199.53;2082460;28;20652;-49
2021/06/07 00:11:21;;;;;;;2.70;2.20;;;;;;;21.93;57.39;100197.84;2085178;28;20044;-49
2021/06/07 00:12:22;;;;;;;3.15;2.10;;;;;;;21.93;57.22;100197.84;2084625;28;20025;-48
2021/06/07 00:13:24;;;;;;;2.33;2.13;;;;;;;21.92;57.21;100199.69;2089426;28;20028;-48
2021/06/07 00:14:33;;;;;;;2.38;2.15;;;;;;;21.92;57.19;100193.34;2081873;28;20116;-48
2021/06/07 00:15:34;;;;;;;3.22;2.63;;;;;;;21.92;57.22;100187.88;2085824;28;20021;-52
2021/06/07 00:16:36;;;;;;;2.05;1.83;;;;;;;21.92;57.32;100190.59;2088119;28;20045;-50
2021/06/07 00:17:36;;;;;;;;;;;;;;;21.87;57.40;100187.50;2083188;28;20026;-48
2021/06/07 00:18:38;;;;;;;2.50;2.20;;;;;;;21.88;57.50;100194.69;2085122;28;20311;-48
2021/06/07 00:19:40;;;;;;;3.42;2.72;;;;;;;21.88;57.24;100187.34;2088865;28;20024;-48
2021/06/07 00:20:45;;;;;;;2.40;2.20;;;;;;;21.88;57.36;100192.84;2082549;28;20037;-48
2021/06/07 00:21:47;;;;;;;2.53;1.98;;;;;;;21.89;57.15;100182.72;2081790;28;20052;-48
2021/06/07 00:22:48;;;;;;;2.40;2.10;;;;;;;21.89;57.24;100189.06;2086588;28;20039;-49
2021/06/07 00:23:49;;;;;;;3.47;1.87;;;;;;;21.90;57.50;100187.16;2085162;28;20037;-51
2021/06/07 00:24:49;;;;;;;2.42;2.20;;;;;;;21.88;57.17;100187.34;2087486;28;20028;-49
2021/06/07 00:25:52;;;;;;;2.57;2.33;;;;;;;21.89;57.39;100186.31;2088592;28;20507;-49
2021/06/07 00:26:53;;;;;;;2.60;2.40;;;;;;;21.90;57.19;100184.41;2081385;28;20026;-51
2021/06/07 00:27:53;;;;;;;2.77;2.40;;;;;;;21.90;57.34;100179.81;2085309;28;20976;-50
2021/06/07 00:28:55;;;;;;;2.20;2.00;;;;;;;21.90;57.32;100182.56;2090108;28;20048;-48
2021/06/07 00:29:55;;;;;;;2.53;2.25;;;;;;;21.90;57.31;100178.94;2088260;28;20032;-48
2021/06/07 00:30:56;;;;;;;2.33;1.93;;;;;;;21.88;57.44;100176.38;2089475;28;20087;-49
2021/06/07 00:31:56;;;;;;;4.30;2.37;;;;;;;21.90;57.40;100181.69;2074603;28;20027;-48
2021/06/07 00:32:57;;;;;;;2.87;2.27;;;;;;;21.89;57.41;100177.22;2077602;28;20028;-48
2021/06/07 00:33:57;;;;;;;2.73;2.27;;;;;;;21.90;57.30;100178.94;2087962;28;20103;-48
2021/06/07 00:34:58;;;;;;;2.97;2.57;;;;;;;21.90;57.45;100178.94;2086763;28;20017;-49
2021/06/07 00:35:59;;;;;;;3.20;2.30;;;;;;;21.90;57.64;100178.94;2086149;28;20032;-50
2021/06/07 00:36:59;;;;;;;2.92;2.40;;;;;;;21.89;57.48;100182.72;2088380;28;20025;-48
2021/06/07 00:38:00;;;;;;;2.83;2.40;;;;;;;21.90;57.50;100173.44;2086881;28;20022;-48
2021/06/07 00:39:04;;;;;;;3.00;2.40;;;;;;;21.89;57.36;100182.72;2083653;28;20032;-48
2021/06/07 00:40:05;;;;;;;2.72;2.22;;;;;;;21.89;57.67;100179.97;2080817;28;20029;-48
2021/06/07 00:41:07;;;;;;;2.63;2.20;;;;;;;21.89;57.50;100177.22;2086075;28;20459;-49
2021/06/07 00:42:08;;;;;;;2.35;2.03;;;;;;;21.89;57.49;100182.72;2088103;28;20039;-50
2021/06/07 00:43:09;;;;;;;2.10;1.90;;;;;;;21.88;57.51;100181.88;2084657;28;20040;-50
2021/06/07 00:44:13;;;;;;;2.43;2.23;;;;;;;21.89;57.47;100182.72;2081057;28;20451;-49
2021/06/07 00:45:19;;;;;;;2.25;1.95;;;;;;;21.90;57.40;100178.94;2082145;28;20101;-47
2021/06/07 00:46:21;;;;;;;2.70;2.40;;;;;;;21.88;57.77;100186.47;2083740;28;20151;-49
2021/06/07 00:47:22;;;;;;;2.33;2.13;;;;;;;21.88;57.81;100175.50;2080923;28;20021;-49
2021/06/07 00:48:22;;;;;;;2.30;1.97;;;;;;;21.89;57.52;100174.47;2080134;28;20033;-51
2021/06/07 00:49:24;;;;;;;2.50;2.27;;;;;;;21.88;57.47;100181.88;2087448;28;20088;-49
2021/06/07 00:50:39;;;;;;;2.30;2.10;;;;;;;21.88;57.82;100175.50;2087979;28;20045;-49
2021/06/07 00:51:41;;;;;;;2.17;1.92;;;;;;;21.87;57.65;100179.28;2086901;28;20067;-48
2021/06/07 00:53:00;;;;;;;2.38;2.15;;;;;;;21.86;57.44;100174.81;2084007;28;20114;-50
2021/06/07 00:54:01;;;;;;;2.55;2.30;;;;;;;21.85;57.42;100171.19;2084005;28;20021;-49
2021/06/07 00:55:04;;;;;;;3.75;2.05;;;;;;;21.86;57.69;100172.06;2081290;28;20056;-48
2021/06/07 00:56:08;;;;;;;3.42;2.17;;;;;;;21.88;57.77;100180.97;2086210;28;20086;-51
2021/06/07 00:57:08;;;;;;;2.47;2.10;;;;;;;21.88;57.66;100178.22;2088793;28;20252;-48
2021/06/07 00:58:10;;;;;;;2.87;2.13;;;;;;;21.87;57.67;100174.63;2085891;28;20032;-48
2021/06/07 00:59:10;;;;;;;2.22;2.03;;;;;;;21.88;57.61;100170.00;2087071;28;20032;-52
2021/06/07 01:00:12;;;;;;;2.30;1.93;;;;;;;21.87;57.66;100177.38;2088451;28;20032;-48
2021/06/07 01:01:17;;;;;;;2.42;2.22;;;;;;;21.87;57.77;100173.78;2085567;28;20346;-48
2021/06/07 01:02:18;;;;;;;2.22;2.00;;;;;;;21.87;57.60;100165.56;2081495;28;20082;-48
2021/06/07 01:03:20;;;;;;;2.33;2.07;;;;;;;21.87;57.38;100177.38;2085026;28;20092;-49
2021/06/07 01:04:21;;;;;;;3.15;2.40;;;;;;;21.88;57.74;100178.22;2086966;28;20440;-49
2021/06/07 01:05:22;;;;;;;2.42;2.17;;;;;;;21.88;57.94;100176.38;2084622;28;20044;-49
2021/06/07 01:06:23;;;;;;;3.00;2.13;;;;;;;21.87;57.58;100171.91;2086954;28;20044;-48
2021/06/07 01:07:24;;;;;;;2.28;1.90;;;;;;;21.87;57.73;100173.78;2089105;28;20028;-47
2021/06/07 01:08:25;;;;;;;2.73;2.30;;;;;;;21.88;57.64;100175.50;2076398;28;20025;-49
2021/06/07 01:09:25;;;;;;;2.17;1.97;;;;;;;21.89;57.70;100171.75;2078087;28;20555;-48
2021/06/07 01:10:26;;;;;;;2.97;2.10;;;;;;;21.88;57.56;100172.75;2085105;28;20028;-49
2021/06/07 01:11:27;;;;;;;2.53;2.20;;;;;;;21.87;57.62;100171.91;2085804;28;20458;-49
2021/06/07 01:12:27;;;;;;;2.13;1.93;;;;;;;21.88;57.82;100167.25;2089821;28;20017;-48
2021/06/07 01:13:28;;;;;;;2.20;1.80;;;;;;;21.87;57.59;100171.91;2086143;28;20475;-50
2021/06/07 01:14:28;;;;;;;3.23;2.03;;;;;;;21.89;57.42;100171.75;2085316;28;20028;-51
2021/06/07 01:15:29;;;;;;;2.33;1.90;;;;;;;21.88;57.45;100167.25;2084568;28;20082;-48
2021/06/07 01:16:29;;;;;;;1.83;1.70;;;;;;;21.87;57.81;100168.28;2085640;28;20613;-49
2021/06/07 01:17:30;;;;;;;3.00;2.57;;;;;;;21.87;57.75;100168.28;2085014;28;20021;-47
2021/06/07 01:18:31;;;;;;;2.60;2.00;;;;;;;21.87;57.45;100169.16;2088987;28;20048;-48
2021/06/07 01:19:32;;;;;;;2.42;1.80;;;;;;;21.86;57.83;100163.84;2082490;28;20096;-49
2021/06/07 01:20:33;;;;;;;2.47;2.10;;;;;;;21.87;57.74;100162.81;2080692;28;20029;-48
2021/06/07 01:21:33;;;;;;;2.43;2.03;;;;;;;21.86;57.63;100166.59;2083638;28;20056;-48
2021/06/07 01:22:34;;;;;;;2.57;2.37;;;;;;;21.86;57.67;100166.59;2080044;28;20039;-48
2021/06/07 01:23:35;;;;;;;2.15;1.95;;;;;;;21.86;57.91;100161.09;2082534;28;20115;-51
2021/06/07 01:24:36;;;;;;;1.95;1.85;;;;;;;21.87;57.67;100165.56;2087314;28;20090;-48
2021/06/07 01:25:41;;;;;;;2.70;2.20;;;;;;;21.86;57.83;100166.59;2080988;28;20083;-48
2021/06/07 01:26:41;;;;;;;2.15;1.95;;;;;;;21.87;57.49;100157.31;2086414;28;20025;-48
2021/06/07 01:27:42;;;;;;;2.40;2.20;;;;;;;21.85;57.42;100157.47;2083024;28;20017;-48
2021/06/07 01:28:43;;;;;;;2.70;2.20;;;;;;;21.87;57.70;100157.31;2081083;28;20108;-51
2021/06/07 01:29:43;;;;;;;2.83;2.33;;;;;;;21.87;57.76;100157.31;2085219;28;20025;-49
2021/06/07 01:30:48;;;;;;;2.67;2.40;;;;;;;21.86;57.58;100164.69;2088360;28;20124;-49
2021/06/07 01:31:48;;;;;;;2.30;2.00;;;;;;;21.86;57.66;100161.09;2086372;28;20432;-51
2021/06/07 01:32:49;;;;;;;3.37;2.30;;;;;;;21.86;57.65;100166.59;2083001;28;20029;-49
2021/06/07 01:33:51;;;;;;;2.07;1.87;;;;;;;21.86;57.63;100161.09;2086455;28;20028;-50
2021/06/07 01:34:52;;;;;;;2.42;2.00;;;;;;;21.86;57.47;100158.34;2082254;28;20032;-48
2021/06/07 01:35:55;;;;;;;3.03;2.03;;;;;;;21.87;57.58;100157.31;2084244;28;20033;-51
2021/06/07 01:36:56;;;;;;;2.50;2.30;;;;;;;21.87;57.59;100162.81;2089219;28;20055;-50
2021/06/07 01:37:56;;;;;;;2.50;2.10;;;;;;;21.87;57.83;100162.81;2085065;28;20067;-48
2021/06/07 01:38:57;;;;;;;2.90;1.70;;;;;;;21.87;57.50;100162.81;2082906;28;20040;-49
2021/06/07 01:39:58;;;;;;;2.97;2.10;;;;;;;21.87;57.77;100165.56;2084864;28;20048;-49
2021/06/07 01:41:07;;;;;;;2.78;2.38;;;;;;;21.86;57.81;100164.69;2080778;28;20117;-48
2021/06/07 01:42:08;;;;;;;2.58;2.33;;;;;;;21.86;57.49;100161.09;2088708;28;20032;-48
2021/06/07 01:43:09;;;;;;;2.20;2.00;;;;;;;21.86;57.61;100166.59;2085007;28;20027;-50
2021/06/07 01:44:10;;;;;;;2.25;1.90;;;;;;;21.84;57.52;100159.38;2087192;28;20758;-48
2021/06/07 01:45:12;;;;;;;2.43;2.23;;;;;;;21.86;57.94;100166.59;2085991;28;20063;-48
2021/06/07 01:46:14;;;;;;;2.63;1.85;;;;;;;21.86;57.82;100161.94;2087026;28;20029;-47
2021/06/07 01:47:14;;;;;;;2.42;2.22;;;;;;;21.85;57.72;100160.22;2081140;28;20024;-48
2021/06/07 01:48:16;;;;;;;2.37;2.00;;;;;;;21.86;57.51;100164.69;2084094;28;20088;-47
2021/06/07 01:49:16;;;;;;;3.60;2.20;;;;;;;21.86;57.57;100169.34;2080935;28;20037;-48
2021/06/07 01:50:17;;;;;;;2.70;2.03;;;;;;;21.85;57.72;100168.44;2085116;28;20049;-47
2021/06/07 01:51:18;;;;;;;2.27;2.00;;;;;;;21.84;57.59;100178.56;2081947;28;20113;-49
2021/06/07 01:52:18;;;;;;;3.40;2.40;;;;;;;21.84;57.64;100175.84;2086891;28;20085;-51
2021/06/07 01:53:22;;;;;;;2.33;1.90;;;;;;;21.84;58.03;100175.84;2084542;28;20027;-48
2021/06/07 01:54:22;;;;;;;2.03;1.77;;;;;;;21.84;57.99;100178.56;2073353;28;20060;-50
2021/06/07 01:55:34;;;;;;;3.47;2.13;;;;;;;21.83;57.83;100178.75;2078414;28;20108;-48
2021/06/07 01:56:35;;;;;;;2.40;2.20;;;;;;;21.84;57.63;100174.97;2087125;28;20028;-50
2021/06/07 01:57:35;;;;;;;3.70;2.33;;;;;;;21.84;57.70;100177.72;2081518;28;20045;-47
2021/06/07 01:58:38;;;;;;;2.30;2.00;;;;;;;21.84;57.68;100174.97;2083839;28;20036;-49
2021/06/07 01:59:39;;;;;;;2.05;1.80;;;;;;;21.84;57.97;100173.09;2089255;28;20336;-48
2021/06/07 02:00:41;;;;;;;2.00;1.80;;;;;;;21.83;57.84;100178.75;2082043;28;20057;-48
2021/06/07 02:01:42;;;;;;;2.60;2.08;;;;;;;21.84;57.95;100174.97;2084496;28;20020;-49
2021/06/07 02:02:43;;;;;;;2.87;2.20;;;;;;;21.83;57.79;100174.13;2085996;28;20021;-48
2021/06/07 02:03:44;;;;;;;;;;;;;;;21.78;57.88;100176.50;2079871;28;20021;-50
2021/06/07 02:04:44;;;;;;;2.78;1.98;;;;;;;21.79;57.96;100178.22;2080904;28;20374;-49
2021/06/07 02:05:48;;;;;;;3.03;2.13;;;;;;;21.81;57.71;100176.16;2086757;28;20035;-49
2021/06/07 02:06:49;;;;;;;2.47;1.67;;;;;;;21.81;57.88;100178.91;2086637;28;20040;-48
2021/06/07 02:07:54;;;;;;;2.20;2.00;;;;;;;21.81;57.77;100175.31;2081539;28;20515;-48
2021/06/07 02:08:55;;;;;;;2.65;1.90;;;;;;;21.81;57.83;100178.06;2081385;28;20683;-52
2021/06/07 02:09:55;;;;;;;2.20;2.00;;;;;;;21.80;57.62;100168.97;2081164;28;20025;-50
2021/06/07 02:11:06;;;;;;;2.10;1.83;;;;;;;21.80;57.96;100171.72;2089190;28;20360;-47
2021/06/07 02:12:07;;;;;;;2.17;1.98;;;;;;;21.79;57.73;100175.47;2083462;28;20082;-51
2021/06/07 02:13:09;;;;;;;2.35;2.08;;;;;;;21.80;57.80;100177.22;2081036;28;20029;-51
2021/06/07 02:14:10;;;;;;;2.63;2.33;;;;;;;21.80;58.00;100182.69;2085390;28;20032;-51
2021/06/07 02:15:12;;;;;;;2.53;1.77;;;;;;;21.80;57.88;100177.22;2087030;28;20017;-47
2021/06/07 02:16:25;;;;;;;2.78;2.03;;;;;;;21.80;58.13;100182.69;2088887;28;20029;-48
2021/06/07 02:17:26;;;;;;;2.20;2.00;;;;;;;21.81;58.21;100180.81;2081322;28;20289;-48
2021/06/07 02:18:27;;;;;;;2.67;2.40;;;;;;;21.81;57.74;100181.66;2083618;28;20028;-47
2021/06/07 02:19:27;;;;;;;2.30;2.10;;;;;;;21.80;57.89;100179.94;2082159;28;20039;-50
2021/06/07 02:20:28;;;;;;;5.50;2.67;;;;;;;21.81;57.80;100184.41;2080932;28;20499;-54
2021/06/07 02:21:29;;;;;;;2.33;2.13;;;;;;;21.81;57.96;100181.66;2080654;28;20029;-50
2021/06/07 02:22:34;;;;;;;2.63;2.22;;;;;;;21.80;58.02;100179.94;2079965;28;20497;-47
2021/06/07 02:23:35;;;;;;;2.28;1.95;;;;;;;21.81;57.93;100186.28;2077702;28;20033;-48
2021/06/07 02:24:35;;;;;;;2.10;1.90;;;;;;;21.80;58.07;100184.56;2077072;28;20213;-47
2021/06/07 02:25:36;;;;;;;2.63;2.43;;;;;;;21.81;58.20;100181.66;2080531;28;20032;-49
2021/06/07 02:26:37;;;;;;;3.13;1.83;;;;;;;21.81;58.10;100180.81;2079828;28;20024;-49
2021/06/07 02:27:38;;;;;;;2.13;1.83;;;;;;;21.80;57.96;100190.94;2085006;28;20051;-49
2021/06/07 02:28:48;;;;;;;1.97;1.77;;;;;;;21.81;57.93;100184.41;2086987;28;20029;-49
2021/06/07 02:29:49;;;;;;;2.47;2.13;;;;;;;21.80;58.15;100181.81;2085794;28;20085;-52
2021/06/07 02:30:50;;;;;;;2.23;2.00;;;;;;;21.80;57.85;100190.03;2087123;28;20033;-48
2021/06/07 02:31:50;;;;;;;2.97;1.80;;;;;;;21.80;57.76;100190.94;2089258;28;20705;-51
2021/06/07 02:32:52;;;;;;;2.20;1.97;;;;;;;21.80;58.08;100190.94;2083153;28;20024;-49
2021/06/07 02:33:54;;;;;;;2.35;2.13;;;;;;;21.81;57.66;100187.16;2082470;28;20537;-50
2021/06/07 02:34:54;;;;;;;2.28;2.08;;;;;;;21.80;58.05;100190.94;2080860;28;20026;-49
2021/06/07 02:35:55;;;;;;;2.50;1.80;;;;;;;21.80;57.87;100185.44;2080657;28;20021;-48
2021/06/07 02:36:56;;;;;;;3.05;2.25;;;;;;;21.80;57.79;100185.44;2086843;28;20033;-48
2021/06/07 02:37:57;;;;;;;1.93;1.73;;;;;;;21.80;57.64;100190.94;2083839;28;20021;-49
2021/06/07 02:38:58;;;;;;;2.85;2.10;;;;;;;21.79;57.81;100191.94;2083613;28;20021;-48
2021/06/07 02:39:59;;;;;;;1.95;1.75;;;;;;;21.80;57.70;100190.94;2085830;28;20033;-48
2021/06/07 02:41:00;;;;;;;2.58;1.95;;;;;;;21.80;58.04;100190.94;2082918;28;20029;-48
2021/06/07 02:42:02;;;;;;;3.30;2.05;;;;;;;21.80;58.08;100185.44;2080888;28;20068;-51
2021/06/07 02:43:04;;;;;;;1.73;1.63;;;;;;;21.80;57.64;100190.03;2085952;28;20025;-49
2021/06/07 02:44:06;;;;;;;2.40;1.95;;;;;;;21.80;57.90;100184.56;2084292;28;20360;-48
2021/06/07 02:45:10;;;;;;;2.03;1.83;;;;;;;21.79;57.90;100189.19;2085049;28;20040;-51
2021/06/07 02:46:11;;;;;;;2.35;2.10;;;;;;;21.80;57.87;100185.44;2085842;28;20037;-48
2021/06/07 02:47:11;;;;;;;2.60;1.67;;;;;;;21.78;58.04;100187.50;2083488;28;20034;-48
2021/06/07 02:48:12;;;;;;;2.40;1.83;;;;;;;21.79;57.80;100183.69;2084410;28;20021;-49
2021/06/07 02:49:13;;;;;;;2.53;2.00;;;;;;;21.79;57.70;100180.97;2080450;28;20051;-49
2021/06/07 02:50:17;;;;;;;4.65;2.22;;;;;;;21.80;57.88;100182.69;2080914;28;20076;-51
2021/06/07 02:51:18;;;;;;;2.65;2.17;;;;;;;21.80;57.84;100179.94;2085442;28;20024;-47
2021/06/07 02:52:18;;;;;;;1.93;1.73;;;;;;;21.78;57.68;100184.75;2080532;28;20484;-50
2021/06/07 02:53:18;;;;;;;2.27;2.03;;;;;;;21.79;57.79;100183.69;2080903;28;20092;-50
2021/06/07 02:54:19;;;;;;;2.97;2.00;;;;;;;21.80;57.90;100190.03;2080629;28;20055;-48
2021/06/07 02:55:39;;;;;;;2.77;2.07;;;;;;;21.78;57.81;100187.50;2085510;28;20117;-47
2021/06/07 02:56:39;;;;;;;1.77;1.67;;;;;;;21.78;57.89;100181.16;2080858;28;20036;-51
2021/06/07 02:57:40;;;;;;;2.47;1.90;;;;;;;21.78;57.76;100182.00;2088565;28;20390;-48
2021/06/07 02:58:40;;;;;;;1.93;1.73;;;;;;;21.78;57.89;100187.50;2089542;28;20017;-49
2021/06/07 02:59:40;;;;;;;2.33;2.13;;;;;;;21.78;58.07;100181.16;2085572;28;20021;-49
2021/06/07 03:00:46;;;;;;;2.37;2.07;;;;;;;21.77;57.92;100188.50;2080735;28;20573;-50
2021/06/07 03:01:46;;;;;;;2.20;1.77;;;;;;;21.77;57.83;100180.25;2083174;28;20033;-47
2021/06/07 03:02:47;;;;;;;2.47;1.97;;;;;;;21.77;57.70;100182.16;2086892;28;20048;-49
2021/06/07 03:03:47;;;;;;;1.87;1.60;;;;;;;21.77;57.78;100180.25;2079181;28;20055;-48
2021/06/07 03:04:48;;;;;;;2.00;1.80;;;;;;;21.77;58.01;100179.41;2084694;28;20168;-49
2021/06/07 03:05:50;;;;;;;2.50;1.93;;;;;;;21.77;58.01;100176.66;2079244;28;20769;-48
2021/06/07 03:06:50;;;;;;;2.38;2.10;;;;;;;21.77;57.82;100179.41;2078941;28;20091;-48
2021/06/07 03:07:51;;;;;;;2.47;2.10;;;;;;;21.76;58.02;100178.56;2088032;28;20021;-48
2021/06/07 03:08:52;;;;;;;2.40;2.15;;;;;;;21.77;57.79;100174.78;2086859;28;20020;-48
2021/06/07 03:09:52;;;;;;;2.70;2.10;;;;;;;21.76;57.94;100178.56;2084084;28;20037;-47
2021/06/07 03:10:56;;;;;;;2.23;1.63;;;;;;;21.75;58.13;100176.81;2088279;28;20112;-50
2021/06/07 03:11:56;;;;;;;3.03;2.10;;;;;;;21.77;57.89;100184.91;2084800;28;20075;-47
2021/06/07 03:12:57;;;;;;;1.77;1.67;;;;;;;21.77;57.93;100179.41;2081955;28;20021;-49
2021/06/07 03:13:57;;;;;;;2.20;1.80;;;;;;;21.76;57.84;100181.28;2086513;28;20032;-47
2021/06/07 03:14:58;;;;;;;2.37;2.17;;;;;;;21.76;58.17;100170.31;2087114;28;20036;-49
2021/06/07 03:16:00;;;;;;;2.30;2.10;;;;;;;21.76;58.07;100177.69;2089771;28;20133;-50
2021/06/07 03:17:00;;;;;;;2.17;1.90;;;;;;;21.76;57.77;100175.81;2088331;28;21086;-48
2021/06/07 03:18:01;;;;;;;2.30;1.50;;;;;;;21.77;58.19;100173.91;2091030;28;20110;-48
2021/06/07 03:19:01;;;;;;;2.40;2.13;;;;;;;21.76;58.22;100177.69;2084681;28;20025;-49
2021/06/07 03:20:05;;;;;;;2.10;1.90;;;;;;;21.76;58.15;100172.22;2081481;28;20025;-48
2021/06/07 03:21:06;;;;;;;2.00;1.80;;;;;;;21.76;57.93;100173.06;2082219;28;20041;-49
2021/06/07 03:22:06;;;;;;;2.30;2.10;;;;;;;21.76;57.93;100166.72;2080455;28;20037;-47
2021/06/07 03:23:11;;;;;;;9.37;2.23;;;;;;;21.76;58.13;100178.56;2082448;28;20026;-47
2021/06/07 03:24:12;;;;;;;1.85;1.73;;;;;;;21.75;58.10;100165.84;2082565;28;20057;-51
2021/06/07 03:25:12;;;;;;;2.43;2.23;;;;;;;21.76;57.76;100173.06;2081726;28;20029;-48
2021/06/07 03:26:13;;;;;;;2.10;1.80;;;;;;;21.76;57.95;100181.28;2080973;28;20017;-47
2021/06/07 03:27:13;;;;;;;2.77;2.27;;;;;;;21.77;58.07;100173.91;2078598;28;20034;-50
2021/06/07 03:28:16;;;;;;;2.53;2.07;;;;;;;21.76;57.90;100178.56;2090956;28;20040;-47
2021/06/07 03:29:17;;;;;;;1.85;1.73;;;;;;;21.77;57.98;100173.91;2089054;28;20078;-51
2021/06/07 03:30:18;;;;;;;3.70;1.63;;;;;;;21.75;57.70;100182.31;2089886;28;20435;-50
2021/06/07 03:31:19;;;;;;;1.85;1.65;;;;;;;21.76;58.09;100177.69;2083676;28;20344;-50
2021/06/07 03:32:19;;;;;;;2.63;2.13;;;;;;;21.76;57.95;100177.69;2086743;28;20040;-50
2021/06/07 03:33:21;;;;;;;2.97;1.80;;;;;;;21.75;57.72;100176.81;2082466;28;20016;-47
2021/06/07 03:34:21;;;;;;;2.60;2.13;;;;;;;21.75;57.87;100179.56;2087507;28;20474;-47
2021/06/07 03:35:22;;;;;;;1.67;1.57;;;;;;;21.76;58.15;100184.03;2087940;28;20124;-47
2021/06/07 03:36:23;;;;;;;2.95;2.03;;;;;;;21.76;58.07;100184.03;2087751;28;20017;-49
2021/06/07 03:37:24;;;;;;;2.40;2.00;;;;;;;21.75;57.63;100176.81;2087268;28;20784;-51
2021/06/07 03:38:26;;;;;;;3.90;2.30;;;;;;;21.75;57.83;100182.31;2084689;28;20419;-48
2021/06/07 03:39:27;;;;;;;2.20;1.98;;;;;;;21.76;57.82;100181.28;2085851;28;20035;-50
2021/06/07 03:40:30;;;;;;;2.60;1.93;;;;;;;21.75;58.02;100174.06;2090578;28;20017;-47
2021/06/07 03:41:30;;;;;;;1.88;1.65;;;;;;;21.75;57.88;100182.31;2089164;28;20052;-48
2021/06/07 03:42:31;;;;;;;2.10;1.57;;;;;;;21.74;57.81;100174.25;2080904;28;20798;-48
2021/06/07 03:43:33;;;;;;;2.37;1.67;;;;;;;21.75;57.87;100181.44;2082137;28;20021;-49
2021/06/07 03:44:34;;;;;;;2.10;1.77;;;;;;;21.75;57.89;100178.72;2085659;28;20064;-48
2021/06/07 03:45:35;;;;;;;2.13;1.90;;;;;;;21.74;57.89;100179.75;2084688;28;20025;-49
2021/06/07 03:46:36;;;;;;;3.08;2.28;;;;;;;21.74;58.10;100183.34;2082379;28;20038;-47
2021/06/07 03:47:36;;;;;;;2.53;1.70;;;;;;;21.74;57.97;100180.59;2081187;28;20500;-48
2021/06/07 03:48:37;;;;;;;2.10;1.87;;;;;;;21.74;57.57;100177.84;2090108;28;20021;-49
2021/06/07 03:49:37;;;;;;;2.17;1.97;;;;;;;21.74;58.00;100183.34;2084766;28;20084;-49
2021/06/07 03:50:39;;;;;;;1.67;1.53;;;;;;;21.73;58.02;100184.38;2083615;28;20045;-49
2021/06/07 03:51:40;;;;;;;2.20;1.75;;;;;;;21.74;57.70;100191.56;2086271;28;20025;-48
2021/06/07 03:52:41;;;;;;;2.00;1.65;;;;;;;21.73;58.05;100184.38;2089741;28;20036;-47
2021/06/07 03:53:42;;;;;;;2.60;1.83;;;;;;;21.74;57.81;100185.22;2086235;28;20124;-47
2021/06/07 03:54:42;;;;;;;2.30;2.00;;;;;;;21.73;58.06;100184.38;2087746;28;20345;-48
2021/06/07 03:55:43;;;;;;;2.07;1.87;;;;;;;21.73;57.87;100184.38;2089718;28;20033;-48
2021/06/07 03:56:44;;;;;;;2.25;2.00;;;;;;;21.73;57.81;100184.38;2084325;28;20038;-48
2021/06/07 03:57:45;;;;;;;3.53;1.97;;;;;;;21.73;57.80;100189.88;2081960;28;20040;-48
2021/06/07 03:58:45;;;;;;;2.37;1.90;;;;;;;21.72;57.63;100190.88;2081355;28;20029;-50
2021/06/07 03:59:46;;;;;;;2.27;1.70;;;;;;;21.73;57.82;100183.50;2082216;28;20029;-48
2021/06/07 04:00:46;;;;;;;2.33;1.90;;;;;;;21.72;57.89;100185.38;2086689;28;20082;-50
2021/06/07 04:01:47;;;;;;;2.03;1.83;;;;;;;21.73;58.01;100194.47;2082211;28;20336;-47
2021/06/07 04:02:48;;;;;;;2.27;1.83;;;;;;;21.73;57.78;100192.59;2082142;28;20025;-49
2021/06/07 04:03:48;;;;;;;2.40;1.67;;;;;;;21.72;57.79;100192.75;2085233;28;20508;-47
2021/06/07 04:04:49;;;;;;;2.40;2.00;;;;;;;21.72;57.78;100187.28;2084598;28;20043;-48
2021/06/07 04:05:49;;;;;;;2.13;1.90;;;;;;;21.72;57.82;100187.28;2082479;28;20036;-47
2021/06/07 04:06:50;;;;;;;1.87;1.77;;;;;;;21.72;57.93;100193.63;2086157;28;20119;-48
2021/06/07 04:07:51;;;;;;;2.13;1.83;;;;;;;21.72;57.69;100190.88;2090600;28;20029;-47
2021/06/07 04:08:56;;;;;;;2.13;1.92;;;;;;;21.71;57.74;100194.66;2085016;28;20729;-50
2021/06/07 04:09:56;;;;;;;2.10;1.90;;;;;;;21.72;57.81;100187.28;2083787;28;20041;-50
2021/06/07 04:10:57;;;;;;;2.37;1.87;;;;;;;21.71;57.87;100199.28;2090345;28;20048;-51
2021/06/07 04:11:57;;;;;;;2.27;1.83;;;;;;;21.71;57.84;100197.41;2088585;28;20114;-51
2021/06/07 04:12:58;;;;;;;1.70;1.60;;;;;;;21.71;57.81;100197.41;2090532;28;20742;-48
2021/06/07 04:13:58;;;;;;;1.93;1.73;;;;;;;21.71;57.82;100197.41;2086149;28;20112;-49
2021/06/07 04:14:59;;;;;;;4.07;1.90;;;;;;;21.71;57.81;100191.91;2085603;28;20055;-47
2021/06/07 04:15:59;;;;;;;2.87;1.97;;;;;;;21.72;57.77;100190.03;2082407;28;20441;-48
2021/06/07 04:17:00;;;;;;;2.20;1.80;;;;;;;21.70;57.73;100190.16;2085100;28;20053;-47
2021/06/07 04:18:01;;;;;;;1.70;1.60;;;;;;;21.71;58.04;100191.91;2089860;28;20054;-49
2021/06/07 04:19:01;;;;;;;2.35;2.15;;;;;;;21.70;57.63;100195.66;2088136;28;20036;-48
2021/06/07 04:20:05;;;;;;;3.77;2.33;;;;;;;21.70;57.76;100190.16;2088972;28;20036;-48
2021/06/07 04:21:05;;;;;;;2.08;1.88;;;;;;;21.70;57.89;100190.16;2090205;28;20039;-50
2021/06/07 04:22:06;;;;;;;2.23;2.03;;;;;;;21.71;57.94;100193.81;2084085;28;20034;-49
2021/06/07 04:23:08;;;;;;;2.50;1.97;;;;;;;21.71;57.72;100202.03;2082069;28;20064;-50
2021/06/07 04:24:08;;;;;;;;;;;;;;;21.65;57.78;100195.28;2078357;28;20080;-49
2021/06/07 04:25:10;;;;;;;2.10;1.90;;;;;;;21.66;58.10;100194.28;2078820;28;20398;-48
2021/06/07 04:26:11;;;;;;;1.75;1.60;;;;;;;21.68;57.83;100196.84;2082295;28;20394;-49
2021/06/07 04:27:13;;;;;;;2.30;1.77;;;;;;;21.67;58.17;100196.00;2083613;28;20041;-49
2021/06/07 04:28:13;;;;;;;3.92;1.88;;;;;;;21.68;57.91;100197.72;2090387;28;20083;-49
2021/06/07 04:29:14;;;;;;;2.17;1.97;;;;;;;21.68;58.13;100197.72;2088959;28;20130;-48
2021/06/07 04:30:17;;;;;;;2.07;1.87;;;;;;;21.68;57.71;100197.72;2088859;28;20033;-47
2021/06/07 04:31:17;;;;;;;2.28;2.00;;;;;;;21.68;57.75;100205.97;2081891;28;20029;-49
2021/06/07 04:32:18;;;;;;;3.77;2.07;;;;;;;21.68;57.88;100200.47;2083852;28;20024;-48
2021/06/07 04:33:19;;;;;;;1.70;1.60;;;;;;;21.68;57.84;100195.00;2090307;28;20037;-48
2021/06/07 04:34:19;;;;;;;2.50;2.00;;;;;;;21.68;57.85;100200.47;2084320;28;20032;-50
2021/06/07 04:35:21;;;;;;;2.23;1.87;;;;;;;21.69;57.84;100198.59;2081686;28;20514;-49
2021/06/07 04:36:21;;;;;;;1.73;1.63;;;;;;;21.67;57.90;100196.00;2083243;28;20032;-51
2021/06/07 04:37:21;;;;;;;2.00;1.80;;;;;;;21.68;57.94;100195.00;2084689;28;20060;-48
2021/06/07 04:38:22;;;;;;;1.90;1.60;;;;;;;21.69;57.80;100202.19;2090366;28;20063;-47
2021/06/07 04:39:22;;;;;;;2.00;1.53;;;;;;;21.68;57.73;100197.72;2086876;28;20040;-48
2021/06/07 04:40:29;;;;;;;3.57;1.97;;;;;;;21.68;57.65;100203.22;2088402;28;20048;-48
2021/06/07 04:41:30;;;;;;;2.13;1.58;;;;;;;21.67;57.76;100201.47;2081942;28;20025;-48
2021/06/07 04:42:30;;;;;;;2.13;1.93;;;;;;;21.69;57.67;100199.44;2082999;28;20032;-46
2021/06/07 04:43:30;;;;;;;1.70;1.60;;;;;;;21.69;57.94;100204.06;2082100;28;20068;-50
2021/06/07 04:44:31;;;;;;;1.80;1.67;;;;;;;21.68;57.78;100202.34;2080299;28;20022;-49
2021/06/07 04:45:31;;;;;;;1.50;1.40;;;;;;;21.68;57.79;100207.81;2081135;28;20057;-47
2021/06/07 04:46:32;;;;;;;1.50;1.40;;;;;;;21.68;57.59;100199.59;2081874;28;20284;-51